Alcova, Wyoming
Current Conditions -  °F | °C
As of 4:53 PM on Friday 19 Dec 2014 (Local Time) from KCPR Reporting Station
Clear Clear  
Wind Chill: 20°   Ceiling: Unl
Heat Index: 32°   Visibility: 10mi
Dew Point: 23°   Wind: 20mph
Humidity: 69%   Direction: 210°SSW
Pressure: 29.97"   Gusts: NA
Location:  42.55°N, 106.72°W
Report Text: KCPR 192353Z 21017KT 10SM CLR 00/M05 A2997 RMK AO2 SLP177 T00001050 10006 21017 50000
Loading
Personal Weather Stations






























Interactive Weather Map New forecast layout! Learn more

10-Day Weather Forecast

Advertisements
Track Severe Weather on mobile